Time;durP1;ratioP1;P1;durP2;ratioP2;P2;SDS_P1;SDS_P2;PMS_P1;PMS_P2;Temp;Humidity;BMP_temperature;BMP_pressure;BME280_temperature;BME280_humidity;BME280_pressure;Samples;Min_cycle;Max_cycle;Signal;HPM_P1;HPM_P2
2023/05/23 00:00:07;;;;;;;12.00;9.60;;;;;;;-128.00;-1.00;-1.00;105703;1251;1003833;-71
2023/05/23 00:02:53;;;;;;;11.50;10.30;;;;;;;-128.00;-1.00;-1.00;105730;1251;1056025;-71
2023/05/23 00:05:20;;;;;;;11.50;10.30;;;;;;;-128.00;-1.00;-1.00;105412;1251;1004523;-71
2023/05/23 00:07:47;;;;;;;14.70;10.90;;;;;;;-128.00;-1.00;-1.00;105687;1251;1004247;-71
2023/05/23 00:10:13;;;;;;;11.60;10.40;;;;;;;-128.00;-1.00;-1.00;105426;1251;1003750;-70
2023/05/23 00:12:41;;;;;;;14.90;11.20;;;;;;;-128.00;-1.00;-1.00;105717;1251;1004801;-70
2023/05/23 00:15:08;;;;;;;12.90;11.20;;;;;;;-128.00;-1.00;-1.00;105532;1251;1004701;-71
2023/05/23 00:17:36;;;;;;;14.80;12.00;;;;;;;-128.00;-1.00;-1.00;105693;1251;1004470;-71
2023/05/23 00:20:03;;;;;;;14.20;12.20;;;;;;;-128.00;-1.00;-1.00;105659;1251;1005013;-70
2023/05/23 00:22:30;;;;;;;22.20;15.30;;;;;;;-128.00;-1.00;-1.00;105714;1251;1004994;-70
2023/05/23 00:24:56;;;;;;;17.10;14.50;;;;;;;-128.00;-1.00;-1.00;105720;1251;1003524;-70
2023/05/23 00:27:23;;;;;;;17.90;13.70;;;;;;;-128.00;-1.00;-1.00;105737;1251;1004684;-70
2023/05/23 00:29:49;;;;;;;18.40;12.80;;;;;;;-128.00;-1.00;-1.00;105693;1251;1004694;-71
2023/05/23 00:32:16;;;;;;;16.90;13.90;;;;;;;-128.00;-1.00;-1.00;105726;1251;1004532;-70
2023/05/23 00:34:44;;;;;;;18.20;13.10;;;;;;;-128.00;-1.00;-1.00;105692;1251;1004638;-70
2023/05/23 00:37:10;;;;;;;17.30;13.50;;;;;;;-128.00;-1.00;-1.00;105747;1251;1004054;-71
2023/05/23 00:39:37;;;;;;;16.40;13.00;;;;;;;-128.00;-1.00;-1.00;105714;1251;1004060;-71
2023/05/23 00:42:05;;;;;;;18.50;12.50;;;;;;;-128.00;-1.00;-1.00;105688;1251;1005018;-71
2023/05/23 00:44:31;;;;;;;22.40;16.20;;;;;;;-128.00;-1.00;-1.00;105632;1251;1004555;-71
2023/05/23 00:46:58;;;;;;;15.30;13.60;;;;;;;-128.00;-1.00;-1.00;105745;1251;1004492;-71
2023/05/23 00:49:26;;;;;;;16.80;15.10;;;;;;;-128.00;-1.00;-1.00;105736;1251;1004275;-71
2023/05/23 00:51:53;;;;;;;16.50;14.30;;;;;;;-128.00;-1.00;-1.00;105700;1251;1055843;-70
2023/05/23 00:54:26;;;;;;;14.90;13.10;;;;;;;-128.00;-1.00;-1.00;105691;1251;1004500;-70
2023/05/23 00:56:53;;;;;;;15.90;14.20;;;;;;;-128.00;-1.00;-1.00;105723;1251;1045651;-70
2023/05/23 00:59:21;;;;;;;13.00;11.70;;;;;;;-128.00;-1.00;-1.00;105727;1251;1004478;-70
2023/05/23 01:01:49;;;;;;;14.10;11.10;;;;;;;-128.00;-1.00;-1.00;105726;1251;1004091;-71
2023/05/23 01:04:16;;;;;;;13.50;11.10;;;;;;;-128.00;-1.00;-1.00;105692;1251;1003904;-70
2023/05/23 01:06:45;;;;;;;13.10;11.20;;;;;;;-128.00;-1.00;-1.00;105684;1251;1004276;-71
2023/05/23 01:09:14;;;;;;;17.60;12.10;;;;;;;-128.00;-1.00;-1.00;105697;1251;1046633;-70
2023/05/23 01:12:05;;;;;;;14.90;10.90;;;;;;;-128.00;-1.00;-1.00;105764;1251;1048288;-69
2023/05/23 01:14:56;;;;;;;12.10;10.80;;;;;;;-128.00;-1.00;-1.00;105742;1251;1063358;-70
2023/05/23 01:17:32;;;;;;;14.00;11.20;;;;;;;-128.00;-1.00;-1.00;105147;1258;1056150;-71
2023/05/23 01:20:04;;;;;;;14.80;12.30;;;;;;;-128.00;-1.00;-1.00;105142;1259;1058359;-71
2023/05/23 01:23:00;;;;;;;17.20;12.40;;;;;;;-128.00;-1.00;-1.00;105111;1258;1046912;-71
2023/05/23 01:25:57;;;;;;;21.10;15.40;;;;;;;-128.00;-1.00;-1.00;105182;1258;1047679;-71
2023/05/23 01:28:28;;;;;;;18.50;15.50;;;;;;;-128.00;-1.00;-1.00;105147;1259;1062001;-72
2023/05/23 01:30:57;;;;;;;21.90;18.20;;;;;;;-128.00;-1.00;-1.00;105160;1259;1055950;-71
2023/05/23 01:33:25;;;;;;;17.20;14.00;;;;;;;-128.00;-1.00;-1.00;105152;1259;1058974;-69
2023/05/23 01:35:51;;;;;;;14.20;12.20;;;;;;;-128.00;-1.00;-1.00;105135;1258;1005338;-70
2023/05/23 01:38:18;;;;;;;14.50;11.80;;;;;;;-128.00;-1.00;-1.00;105157;1260;1005112;-70
2023/05/23 01:40:44;;;;;;;12.50;11.20;;;;;;;-128.00;-1.00;-1.00;105142;1259;1004268;-70
2023/05/23 01:43:11;;;;;;;15.00;11.60;;;;;;;-128.00;-1.00;-1.00;105163;1260;1004801;-71
2023/05/23 01:45:38;;;;;;;14.20;12.40;;;;;;;-128.00;-1.00;-1.00;105151;1259;1004748;-71
2023/05/23 01:48:05;;;;;;;16.80;13.70;;;;;;;-128.00;-1.00;-1.00;105145;1259;1003807;-71
2023/05/23 01:50:32;;;;;;;18.70;14.30;;;;;;;-128.00;-1.00;-1.00;105166;1260;1004994;-71
2023/05/23 01:52:59;;;;;;;16.90;12.00;;;;;;;-128.00;-1.00;-1.00;105099;1259;1004815;-71
2023/05/23 01:55:27;;;;;;;14.20;12.70;;;;;;;-128.00;-1.00;-1.00;105567;1251;1004514;-70
2023/05/23 01:57:55;;;;;;;13.80;11.60;;;;;;;-128.00;-1.00;-1.00;105755;1251;1003678;-70
2023/05/23 02:00:34;;;;;;;14.20;11.90;;;;;;;-128.00;-1.00;-1.00;105655;1251;1004942;-71
2023/05/23 02:03:01;;;;;;;15.50;13.10;;;;;;;-128.00;-1.00;-1.00;105707;1251;1046950;-71
2023/05/23 02:05:28;;;;;;;19.10;13.40;;;;;;;-128.00;-1.00;-1.00;105735;1251;1004700;-71
2023/05/23 02:07:54;;;;;;;15.00;13.40;;;;;;;-128.00;-1.00;-1.00;105742;1251;1004188;-71
2023/05/23 02:10:21;;;;;;;17.30;15.60;;;;;;;-128.00;-1.00;-1.00;105674;1251;1004397;-70
2023/05/23 02:12:47;;;;;;;17.80;14.80;;;;;;;-128.00;-1.00;-1.00;105660;1251;1004852;-71
2023/05/23 02:15:16;;;;;;;19.10;16.00;;;;;;;-128.00;-1.00;-1.00;105679;1251;1004326;-71
2023/05/23 02:17:43;;;;;;;21.20;17.60;;;;;;;-128.00;-1.00;-1.00;105740;1251;1062682;-71
2023/05/23 02:20:09;;;;;;;17.10;15.40;;;;;;;-128.00;-1.00;-1.00;105727;1251;1004933;-70
2023/05/23 02:22:37;;;;;;;19.40;14.70;;;;;;;-128.00;-1.00;-1.00;105669;1251;1003180;-71
2023/05/23 02:25:04;;;;;;;15.60;13.00;;;;;;;-128.00;-1.00;-1.00;105711;1251;1005280;-70
2023/05/23 02:27:31;;;;;;;13.50;12.20;;;;;;;-128.00;-1.00;-1.00;105557;1251;1003936;-70
2023/05/23 02:29:57;;;;;;;16.10;13.40;;;;;;;-128.00;-1.00;-1.00;105684;1251;1003820;-70
2023/05/23 02:32:23;;;;;;;15.60;12.70;;;;;;;-128.00;-1.00;-1.00;105753;1251;1003531;-71
2023/05/23 02:34:50;;;;;;;15.30;13.50;;;;;;;-128.00;-1.00;-1.00;105649;1251;1003893;-71
2023/05/23 02:37:17;;;;;;;16.30;13.50;;;;;;;-128.00;-1.00;-1.00;105741;1251;1004425;-71
2023/05/23 02:39:43;;;;;;;16.30;12.90;;;;;;;-128.00;-1.00;-1.00;105729;1251;1004916;-71
2023/05/23 02:42:10;;;;;;;14.00;12.70;;;;;;;-128.00;-1.00;-1.00;105748;1251;1004022;-71
2023/05/23 02:44:36;;;;;;;15.50;13.60;;;;;;;-128.00;-1.00;-1.00;105757;1251;1003798;-71
2023/05/23 02:47:03;;;;;;;15.90;14.00;;;;;;;-128.00;-1.00;-1.00;105765;1251;1003716;-71
2023/05/23 02:49:29;;;;;;;19.60;17.50;;;;;;;-128.00;-1.00;-1.00;105719;1251;1004595;-71
2023/05/23 02:51:56;;;;;;;19.10;17.20;;;;;;;-128.00;-1.00;-1.00;105731;1251;1004143;-71
2023/05/23 02:54:22;;;;;;;17.70;15.90;;;;;;;-128.00;-1.00;-1.00;105577;1251;1004881;-71
2023/05/23 02:56:51;;;;;;;18.80;15.80;;;;;;;-128.00;-1.00;-1.00;105749;1251;1003446;-71
2023/05/23 02:59:17;;;;;;;17.10;14.50;;;;;;;-128.00;-1.00;-1.00;105711;1251;1060464;-71
2023/05/23 03:01:44;;;;;;;19.00;15.90;;;;;;;-128.00;-1.00;-1.00;105757;1251;1003738;-71
2023/05/23 03:04:12;;;;;;;15.00;13.50;;;;;;;-128.00;-1.00;-1.00;105757;1251;1004695;-71
2023/05/23 03:06:40;;;;;;;15.70;14.20;;;;;;;-128.00;-1.00;-1.00;105709;1251;1004672;-71
2023/05/23 03:09:08;;;;;;;16.00;14.20;;;;;;;-128.00;-1.00;-1.00;105700;1251;1055495;-71
2023/05/23 03:11:35;;;;;;;15.80;14.20;;;;;;;-128.00;-1.00;-1.00;105729;1251;1003635;-71
2023/05/23 03:14:02;;;;;;;15.00;13.40;;;;;;;-128.00;-1.00;-1.00;105682;1251;1003754;-71
2023/05/23 03:16:29;;;;;;;16.20;14.30;;;;;;;-128.00;-1.00;-1.00;105718;1251;1004229;-71
2023/05/23 03:18:55;;;;;;;18.20;14.30;;;;;;;-128.00;-1.00;-1.00;105749;1251;1004418;-71
2023/05/23 03:21:22;;;;;;;16.40;14.20;;;;;;;-128.00;-1.00;-1.00;105752;1251;1004143;-71
2023/05/23 03:23:49;;;;;;;15.10;13.60;;;;;;;-128.00;-1.00;-1.00;105706;1251;1004012;-71
2023/05/23 03:26:15;;;;;;;15.80;13.90;;;;;;;-128.00;-1.00;-1.00;105716;1251;1004714;-71
2023/05/23 03:28:42;;;;;;;16.80;14.70;;;;;;;-128.00;-1.00;-1.00;105708;1251;1005195;-71
2023/05/23 03:31:08;;;;;;;17.40;14.60;;;;;;;-128.00;-1.00;-1.00;105699;1251;1004450;-71
2023/05/23 03:33:34;;;;;;;16.10;14.20;;;;;;;-128.00;-1.00;-1.00;105725;1251;1003927;-71
2023/05/23 03:36:01;;;;;;;14.90;13.40;;;;;;;-128.00;-1.00;-1.00;105704;1251;1004524;-71
2023/05/23 03:38:27;;;;;;;14.20;12.90;;;;;;;-128.00;-1.00;-1.00;105410;1251;1003728;-71
2023/05/23 03:40:54;;;;;;;15.40;13.60;;;;;;;-128.00;-1.00;-1.00;105736;1251;1003843;-71
2023/05/23 03:43:21;;;;;;;15.00;13.10;;;;;;;-128.00;-1.00;-1.00;105680;1251;1004664;-72
2023/05/23 03:45:47;;;;;;;14.70;13.20;;;;;;;-128.00;-1.00;-1.00;105723;1251;1003966;-72
2023/05/23 03:48:14;;;;;;;15.40;13.60;;;;;;;-128.00;-1.00;-1.00;105698;1251;1004807;-72
2023/05/23 03:50:41;;;;;;;15.60;14.00;;;;;;;-128.00;-1.00;-1.00;105688;1251;1004958;-70
2023/05/23 03:53:07;;;;;;;17.60;14.70;;;;;;;-128.00;-1.00;-1.00;105745;1251;1003306;-70
2023/05/23 03:55:34;;;;;;;16.30;14.60;;;;;;;-128.00;-1.00;-1.00;105694;1251;1004891;-70
2023/05/23 03:58:00;;;;;;;16.70;13.90;;;;;;;-128.00;-1.00;-1.00;105755;1251;1004206;-70
2023/05/23 04:00:27;;;;;;;15.50;13.90;;;;;;;-128.00;-1.00;-1.00;105674;1251;1004318;-72
2023/05/23 04:02:53;;;;;;;14.50;13.10;;;;;;;-128.00;-1.00;-1.00;105706;1251;1004159;-70
2023/05/23 04:05:20;;;;;;;15.50;14.10;;;;;;;-128.00;-1.00;-1.00;105724;1251;1003916;-70
2023/05/23 04:07:47;;;;;;;13.90;12.60;;;;;;;-128.00;-1.00;-1.00;105733;1251;1004629;-71
2023/05/23 04:10:14;;;;;;;16.50;14.30;;;;;;;-128.00;-1.00;-1.00;105738;1251;1004193;-71
2023/05/23 04:12:41;;;;;;;13.40;12.20;;;;;;;-128.00;-1.00;-1.00;105738;1251;1004333;-71
2023/05/23 04:15:08;;;;;;;13.70;12.20;;;;;;;-128.00;-1.00;-1.00;105725;1251;1003632;-71
2023/05/23 04:17:37;;;;;;;13.20;11.80;;;;;;;-128.00;-1.00;-1.00;105721;1251;1004046;-70
2023/05/23 04:20:08;;;;;;;13.60;11.50;;;;;;;-128.00;-1.00;-1.00;105739;1251;1061863;-71
2023/05/23 04:22:35;;;;;;;14.70;13.00;;;;;;;-128.00;-1.00;-1.00;105691;1251;1056017;-71
2023/05/23 04:25:01;;;;;;;14.20;12.70;;;;;;;-128.00;-1.00;-1.00;105692;1251;1003493;-71
2023/05/23 04:27:28;;;;;;;15.30;12.90;;;;;;;-128.00;-1.00;-1.00;105729;1251;1004370;-71
2023/05/23 04:29:55;;;;;;;16.20;14.60;;;;;;;-128.00;-1.00;-1.00;105718;1251;1004875;-71
2023/05/23 04:32:21;;;;;;;13.90;12.30;;;;;;;-128.00;-1.00;-1.00;105720;1251;1004505;-71
2023/05/23 04:34:48;;;;;;;13.30;12.00;;;;;;;-128.00;-1.00;-1.00;105718;1251;1004625;-71
2023/05/23 04:37:16;;;;;;;13.70;12.30;;;;;;;-128.00;-1.00;-1.00;105721;1251;1004417;-71
2023/05/23 04:39:42;;;;;;;13.20;11.70;;;;;;;-128.00;-1.00;-1.00;105750;1251;1004527;-71
2023/05/23 04:42:09;;;;;;;12.80;11.70;;;;;;;-128.00;-1.00;-1.00;105732;1251;1004191;-71
2023/05/23 04:44:36;;;;;;;12.20;10.50;;;;;;;-128.00;-1.00;-1.00;105720;1251;1004099;-71
2023/05/23 04:47:02;;;;;;;12.60;11.30;;;;;;;-128.00;-1.00;-1.00;105718;1251;1004591;-71
2023/05/23 04:49:32;;;;;;;11.90;10.80;;;;;;;-128.00;-1.00;-1.00;105713;1251;1004105;-71
2023/05/23 04:51:59;;;;;;;12.20;11.10;;;;;;;-128.00;-1.00;-1.00;105711;1251;1045248;-71
2023/05/23 04:54:26;;;;;;;12.20;11.00;;;;;;;-128.00;-1.00;-1.00;105743;1251;1005117;-71
2023/05/23 04:56:52;;;;;;;12.40;11.20;;;;;;;-128.00;-1.00;-1.00;105517;1251;1003992;-70
2023/05/23 04:59:19;;;;;;;12.80;11.70;;;;;;;-128.00;-1.00;-1.00;105774;1251;1004310;-70
2023/05/23 05:01:45;;;;;;;12.50;11.10;;;;;;;-128.00;-1.00;-1.00;105716;1251;1004405;-70
2023/05/23 05:04:12;;;;;;;13.40;12.00;;;;;;;-128.00;-1.00;-1.00;105702;1251;1004447;-70
2023/05/23 05:06:40;;;;;;;13.20;12.00;;;;;;;-128.00;-1.00;-1.00;105494;1251;1004322;-70
2023/05/23 05:09:06;;;;;;;13.30;11.90;;;;;;;-128.00;-1.00;-1.00;105730;1251;1004060;-71
2023/05/23 05:11:33;;;;;;;13.20;11.60;;;;;;;-128.00;-1.00;-1.00;105769;1251;1004449;-72
2023/05/23 05:13:59;;;;;;;14.40;11.40;;;;;;;-128.00;-1.00;-1.00;105724;1251;1003873;-72
2023/05/23 05:16:26;;;;;;;13.00;11.70;;;;;;;-128.00;-1.00;-1.00;105716;1251;1004601;-72
2023/05/23 05:18:52;;;;;;;12.30;11.10;;;;;;;-128.00;-1.00;-1.00;105445;1251;1004623;-73
2023/05/23 05:21:19;;;;;;;13.90;11.70;;;;;;;-128.00;-1.00;-1.00;105781;1251;1004482;-73
2023/05/23 05:23:45;;;;;;;12.90;11.20;;;;;;;-128.00;-1.00;-1.00;105701;1251;1004944;-72
2023/05/23 05:26:12;;;;;;;12.10;10.80;;;;;;;-128.00;-1.00;-1.00;105686;1251;1004766;-73
2023/05/23 05:28:39;;;;;;;13.20;11.80;;;;;;;-128.00;-1.00;-1.00;105701;1251;1005618;-72
2023/05/23 05:31:06;;;;;;;11.80;10.70;;;;;;;-128.00;-1.00;-1.00;105788;1251;1004329;-73
2023/05/23 05:33:34;;;;;;;19.70;11.20;;;;;;;-128.00;-1.00;-1.00;105750;1251;1004428;-72
2023/05/23 05:36:06;;;;;;;14.50;11.70;;;;;;;-128.00;-1.00;-1.00;105779;1251;1056119;-72
2023/05/23 05:38:32;;;;;;;14.20;11.50;;;;;;;-128.00;-1.00;-1.00;105604;1251;1059089;-72
2023/05/23 05:40:59;;;;;;;13.50;10.50;;;;;;;-128.00;-1.00;-1.00;105712;1251;1004501;-72
2023/05/23 05:43:25;;;;;;;12.00;10.50;;;;;;;-128.00;-1.00;-1.00;105745;1251;1003561;-72
2023/05/23 05:45:52;;;;;;;11.60;10.20;;;;;;;-128.00;-1.00;-1.00;105755;1251;1004341;-72
2023/05/23 05:48:18;;;;;;;10.70;9.70;;;;;;;-128.00;-1.00;-1.00;105751;1251;1003634;-72
2023/05/23 05:50:45;;;;;;;12.80;10.30;;;;;;;-128.00;-1.00;-1.00;105745;1251;1004274;-72
2023/05/23 05:53:12;;;;;;;11.60;10.20;;;;;;;-128.00;-1.00;-1.00;105720;1253;1003774;-73
2023/05/23 05:55:39;;;;;;;11.60;10.40;;;;;;;-128.00;-1.00;-1.00;105750;1251;1004394;-73
2023/05/23 05:58:06;;;;;;;11.30;10.10;;;;;;;-128.00;-1.00;-1.00;105482;1251;1004514;-73
2023/05/23 06:00:33;;;;;;;13.70;10.20;;;;;;;-128.00;-1.00;-1.00;105768;1251;1003672;-73
2023/05/23 06:03:00;;;;;;;13.20;10.10;;;;;;;-128.00;-1.00;-1.00;105760;1251;1004390;-73
2023/05/23 06:05:26;;;;;;;13.30;9.80;;;;;;;-128.00;-1.00;-1.00;105748;1251;1003571;-73
2023/05/23 06:07:53;;;;;;;11.70;10.50;;;;;;;-128.00;-1.00;-1.00;105761;1251;1004823;-73
2023/05/23 06:10:19;;;;;;;12.70;9.80;;;;;;;-128.00;-1.00;-1.00;105751;1251;1004050;-73
2023/05/23 06:12:46;;;;;;;10.10;9.10;;;;;;;-128.00;-1.00;-1.00;105714;1251;1004637;-73
2023/05/23 06:15:13;;;;;;;14.00;10.40;;;;;;;-128.00;-1.00;-1.00;105753;1251;1004117;-73
2023/05/23 06:17:40;;;;;;;13.30;9.50;;;;;;;-128.00;-1.00;-1.00;105688;1251;1005002;-73
2023/05/23 06:20:07;;;;;;;14.80;10.10;;;;;;;-128.00;-1.00;-1.00;105718;1251;1003734;-72
2023/05/23 06:22:33;;;;;;;10.60;8.50;;;;;;;-128.00;-1.00;-1.00;105700;1251;1004700;-73
2023/05/23 06:25:00;;;;;;;10.80;9.70;;;;;;;-128.00;-1.00;-1.00;105767;1251;1003343;-73
2023/05/23 06:27:26;;;;;;;10.60;9.40;;;;;;;-128.00;-1.00;-1.00;105734;1251;1003788;-73
2023/05/23 06:29:53;;;;;;;12.00;9.60;;;;;;;-128.00;-1.00;-1.00;105762;1251;1004167;-73
2023/05/23 06:32:19;;;;;;;10.60;9.70;;;;;;;-128.00;-1.00;-1.00;105770;1251;1003389;-73
2023/05/23 06:34:46;;;;;;;11.30;10.00;;;;;;;-128.00;-1.00;-1.00;105802;1251;1004209;-73
2023/05/23 06:37:12;;;;;;;11.10;10.00;;;;;;;-128.00;-1.00;-1.00;105762;1251;1004173;-72
2023/05/23 06:39:39;;;;;;;10.50;9.30;;;;;;;-128.00;-1.00;-1.00;105744;1251;1004090;-72
2023/05/23 06:42:06;;;;;;;10.40;9.20;;;;;;;-128.00;-1.00;-1.00;105768;1251;1004497;-72
2023/05/23 06:44:32;;;;;;;10.60;9.60;;;;;;;-128.00;-1.00;-1.00;105778;1251;1003586;-73
2023/05/23 06:46:59;;;;;;;10.60;8.60;;;;;;;-128.00;-1.00;-1.00;105729;1252;1004103;-72
2023/05/23 06:49:25;;;;;;;11.70;10.20;;;;;;;-128.00;-1.00;-1.00;105710;1251;1004278;-72
2023/05/23 06:51:52;;;;;;;10.20;9.20;;;;;;;-128.00;-1.00;-1.00;105762;1251;1004213;-72
2023/05/23 06:54:18;;;;;;;10.80;9.30;;;;;;;-128.00;-1.00;-1.00;105544;1251;1004749;-73
2023/05/23 06:56:45;;;;;;;10.00;8.90;;;;;;;-128.00;-1.00;-1.00;105760;1251;1003571;-73
2023/05/23 06:59:11;;;;;;;11.30;9.00;;;;;;;-128.00;-1.00;-1.00;105791;1251;1004210;-72
2023/05/23 07:01:38;;;;;;;10.10;8.90;;;;;;;-128.00;-1.00;-1.00;105773;1251;1005801;-72
2023/05/23 07:04:05;;;;;;;10.40;9.40;;;;;;;-128.00;-1.00;-1.00;105713;1251;1004292;-73
2023/05/23 07:06:32;;;;;;;17.30;9.20;;;;;;;-128.00;-1.00;-1.00;105756;1251;1004314;-73
2023/05/23 07:08:58;;;;;;;11.10;10.00;;;;;;;-128.00;-1.00;-1.00;105779;1251;1003881;-73
2023/05/23 07:11:25;;;;;;;13.30;8.60;;;;;;;-128.00;-1.00;-1.00;105770;1251;1003813;-73
2023/05/23 07:13:52;;;;;;;10.60;9.60;;;;;;;-128.00;-1.00;-1.00;105780;1251;1004962;-73
2023/05/23 07:16:18;;;;;;;14.60;8.40;;;;;;;-128.00;-1.00;-1.00;105764;1251;1003307;-73
2023/05/23 07:18:45;;;;;;;8.90;7.80;;;;;;;-128.00;-1.00;-1.00;105728;1251;1003742;-72
2023/05/23 07:21:11;;;;;;;9.90;8.20;;;;;;;-128.00;-1.00;-1.00;105762;1251;1004346;-72
2023/05/23 07:23:39;;;;;;;9.70;8.40;;;;;;;-128.00;-1.00;-1.00;105765;1252;1004763;-72
2023/05/23 07:26:08;;;;;;;10.80;8.30;;;;;;;-128.00;-1.00;-1.00;105748;1251;1004026;-73
2023/05/23 07:28:36;;;;;;;9.30;8.50;;;;;;;-128.00;-1.00;-1.00;105710;1252;1059472;-72
2023/05/23 07:31:02;;;;;;;9.40;8.10;;;;;;;-128.00;-1.00;-1.00;105755;1251;1003254;-73
2023/05/23 07:33:29;;;;;;;10.10;8.90;;;;;;;-128.00;-1.00;-1.00;105775;1251;1004423;-72
2023/05/23 07:35:56;;;;;;;10.60;8.60;;;;;;;-128.00;-1.00;-1.00;105497;1251;1004637;-72
2023/05/23 07:38:22;;;;;;;10.00;8.00;;;;;;;-128.00;-1.00;-1.00;105764;1251;1004725;-72
2023/05/23 07:40:48;;;;;;;10.50;7.30;;;;;;;-128.00;-1.00;-1.00;105691;1252;1006041;-72
2023/05/23 07:43:15;;;;;;;9.20;8.10;;;;;;;-128.00;-1.00;-1.00;105775;1251;1004522;-72
2023/05/23 07:45:41;;;;;;;10.20;8.50;;;;;;;-128.00;-1.00;-1.00;105544;1251;1003924;-71
2023/05/23 07:48:08;;;;;;;9.10;7.70;;;;;;;-128.00;-1.00;-1.00;105687;1251;1004018;-72
2023/05/23 07:50:35;;;;;;;9.10;8.20;;;;;;;-128.00;-1.00;-1.00;105759;1251;1004105;-72
2023/05/23 07:53:02;;;;;;;9.90;8.90;;;;;;;-128.00;-1.00;-1.00;105743;1251;1006230;-72
2023/05/23 07:55:28;;;;;;;12.90;9.10;;;;;;;-128.00;-1.00;-1.00;105741;1251;1004419;-72
2023/05/23 07:57:55;;;;;;;11.90;9.40;;;;;;;-128.00;-1.00;-1.00;105767;1252;1004902;-72
2023/05/23 08:00:21;;;;;;;10.50;8.50;;;;;;;-128.00;-1.00;-1.00;105781;1251;1003864;-72
2023/05/23 08:02:48;;;;;;;13.00;9.10;;;;;;;-128.00;-1.00;-1.00;105725;1251;1004464;-72
2023/05/23 08:05:15;;;;;;;11.30;8.60;;;;;;;-128.00;-1.00;-1.00;105505;1251;1004880;-71
2023/05/23 08:07:42;;;;;;;11.90;9.20;;;;;;;-128.00;-1.00;-1.00;105748;1251;1003932;-72
2023/05/23 08:10:08;;;;;;;10.20;9.10;;;;;;;-128.00;-1.00;-1.00;105730;1251;1004166;-72
2023/05/23 08:12:35;;;;;;;10.40;9.20;;;;;;;-128.00;-1.00;-1.00;105696;1253;1003807;-72
2023/05/23 08:15:03;;;;;;;11.80;8.80;;;;;;;-128.00;-1.00;-1.00;105741;1251;1004526;-72
2023/05/23 08:17:30;;;;;;;9.00;8.10;;;;;;;-128.00;-1.00;-1.00;105511;1251;1059577;-72
2023/05/23 08:19:57;;;;;;;8.30;7.50;;;;;;;-128.00;-1.00;-1.00;105698;1255;1005118;-73
2023/05/23 08:22:23;;;;;;;10.10;9.10;;;;;;;-128.00;-1.00;-1.00;105764;1251;1004385;-69
2023/05/23 08:24:50;;;;;;;9.10;7.70;;;;;;;-128.00;-1.00;-1.00;105737;1251;1003367;-70
2023/05/23 08:27:16;;;;;;;9.40;8.50;;;;;;;-128.00;-1.00;-1.00;105752;1251;1003441;-70
2023/05/23 08:29:43;;;;;;;9.60;7.80;;;;;;;-128.00;-1.00;-1.00;105686;1252;1003961;-70
2023/05/23 08:32:09;;;;;;;11.20;8.90;;;;;;;-128.00;-1.00;-1.00;105767;1251;1004388;-70
2023/05/23 08:34:36;;;;;;;10.00;8.40;;;;;;;-128.00;-1.00;-1.00;105777;1251;1004639;-70
2023/05/23 08:37:02;;;;;;;10.70;8.50;;;;;;;-128.00;-1.00;-1.00;105743;1251;1004212;-69
2023/05/23 08:39:29;;;;;;;9.50;8.00;;;;;;;-128.00;-1.00;-1.00;105741;1251;1004854;-70
2023/05/23 08:41:55;;;;;;;8.70;7.80;;;;;;;-128.00;-1.00;-1.00;105759;1251;1004205;-68
2023/05/23 08:44:22;;;;;;;10.80;8.50;;;;;;;-128.00;-1.00;-1.00;105720;1251;1004500;-69
2023/05/23 08:46:52;;;;;;;9.00;8.10;;;;;;;-128.00;-1.00;-1.00;105705;1251;1004712;-69
2023/05/23 08:49:19;;;;;;;9.50;8.20;;;;;;;-128.00;-1.00;-1.00;105700;1251;1062762;-69
2023/05/23 08:51:47;;;;;;;8.50;7.60;;;;;;;-128.00;-1.00;-1.00;105668;1252;1003288;-69
2023/05/23 08:54:13;;;;;;;12.20;7.60;;;;;;;-128.00;-1.00;-1.00;105703;1251;1004811;-70
2023/05/23 08:56:42;;;;;;;10.20;7.80;;;;;;;-128.00;-1.00;-1.00;105721;1251;1004111;-70
2023/05/23 08:59:10;;;;;;;8.90;7.90;;;;;;;-128.00;-1.00;-1.00;105688;1251;1046314;-70
2023/05/23 09:01:38;;;;;;;8.20;7.40;;;;;;;-128.00;-1.00;-1.00;105751;1251;1003713;-69
2023/05/23 09:04:05;;;;;;;8.50;7.70;;;;;;;-128.00;-1.00;-1.00;105726;1251;1056227;-70
2023/05/23 09:06:32;;;;;;;8.40;6.90;;;;;;;-128.00;-1.00;-1.00;105740;1252;1004632;-69
2023/05/23 09:08:58;;;;;;;7.30;6.60;;;;;;;-128.00;-1.00;-1.00;105534;1251;1004261;-71
2023/05/23 09:11:25;;;;;;;9.80;7.20;;;;;;;-128.00;-1.00;-1.00;105727;1251;1004708;-69
2023/05/23 09:13:52;;;;;;;11.00;7.50;;;;;;;-128.00;-1.00;-1.00;105479;1251;1003762;-69
2023/05/23 09:16:19;;;;;;;8.40;7.40;;;;;;;-128.00;-1.00;-1.00;105606;1251;1004697;-69
2023/05/23 09:18:45;;;;;;;7.70;7.00;;;;;;;-128.00;-1.00;-1.00;105747;1251;1004318;-69
2023/05/23 09:21:13;;;;;;;7.60;6.90;;;;;;;-128.00;-1.00;-1.00;105698;1251;1003621;-69
2023/05/23 09:23:40;;;;;;;7.10;6.10;;;;;;;-128.00;-1.00;-1.00;105822;1251;1004087;-69
2023/05/23 09:26:08;;;;;;;9.90;6.80;;;;;;;-128.00;-1.00;-1.00;105664;1251;1006089;-69
2023/05/23 09:28:37;;;;;;;7.20;6.10;;;;;;;-128.00;-1.00;-1.00;105721;1251;1003179;-69
2023/05/23 09:31:07;;;;;;;7.00;5.80;;;;;;;-128.00;-1.00;-1.00;105764;1251;1059316;-68
2023/05/23 09:33:46;;;;;;;6.90;6.10;;;;;;;-128.00;-1.00;-1.00;105535;1251;1045103;-69
2023/05/23 09:36:13;;;;;;;7.60;6.80;;;;;;;-128.00;-1.00;-1.00;105740;1251;1048399;-69
2023/05/23 09:38:45;;;;;;;7.00;5.90;;;;;;;-128.00;-1.00;-1.00;105682;1251;1004187;-70
2023/05/23 09:41:12;;;;;;;7.30;5.60;;;;;;;-128.00;-1.00;-1.00;105742;1251;1056138;-68
2023/05/23 09:43:39;;;;;;;6.80;5.80;;;;;;;-128.00;-1.00;-1.00;105732;1251;1004258;-69
2023/05/23 09:46:08;;;;;;;6.60;5.60;;;;;;;-128.00;-1.00;-1.00;105708;1251;1003205;-70
2023/05/23 09:48:35;;;;;;;7.70;5.80;;;;;;;-128.00;-1.00;-1.00;105708;1251;1046754;-69
2023/05/23 09:51:08;;;;;;;6.40;5.50;;;;;;;-128.00;-1.00;-1.00;105739;1251;1005338;-70
2023/05/23 09:53:35;;;;;;;7.10;4.90;;;;;;;-128.00;-1.00;-1.00;105725;1251;1055102;-70
2023/05/23 09:56:03;;;;;;;5.40;5.00;;;;;;;-128.00;-1.00;-1.00;105728;1251;1004678;-70
2023/05/23 09:58:31;;;;;;;6.90;6.20;;;;;;;-128.00;-1.00;-1.00;105739;1251;1004544;-70
2023/05/23 10:01:02;;;;;;;6.70;5.40;;;;;;;-128.00;-1.00;-1.00;105764;1251;1004314;-70
2023/05/23 10:03:46;;;;;;;6.60;5.70;;;;;;;-128.00;-1.00;-1.00;105750;1251;1061939;-70
2023/05/23 10:06:48;;;;;;;7.30;6.20;;;;;;;-128.00;-1.00;-1.00;105720;1251;1056360;-70
2023/05/23 10:09:17;;;;;;;5.50;4.80;;;;;;;-128.00;-1.00;-1.00;105677;1252;1059555;-70
2023/05/23 10:12:07;;;;;;;6.60;5.00;;;;;;;-128.00;-1.00;-1.00;105704;1253;1044954;-70
2023/05/23 10:14:38;;;;;;;6.60;5.10;;;;;;;-128.00;-1.00;-1.00;105733;1255;1047477;-70
2023/05/23 10:17:17;;;;;;;7.20;5.00;;;;;;;-128.00;-1.00;-1.00;105713;1255;1061141;-69
2023/05/23 10:19:50;;;;;;;6.20;5.00;;;;;;;-128.00;-1.00;-1.00;105724;1252;1055000;-69
2023/05/23 10:22:19;;;;;;;5.00;4.60;;;;;;;-128.00;-1.00;-1.00;105781;1251;1059918;-69
2023/05/23 10:24:47;;;;;;;5.60;4.90;;;;;;;-128.00;-1.00;-1.00;105767;1251;1004169;-70
2023/05/23 10:27:14;;;;;;;5.20;4.50;;;;;;;-128.00;-1.00;-1.00;105765;1251;1004087;-69
2023/05/23 10:29:42;;;;;;;8.80;4.90;;;;;;;-128.00;-1.00;-1.00;105689;1252;1003281;-69
2023/05/23 10:32:10;;;;;;;5.50;4.80;;;;;;;-128.00;-1.00;-1.00;105717;1251;1004348;-70
2023/05/23 10:34:50;;;;;;;6.60;5.20;;;;;;;-128.00;-1.00;-1.00;105662;1253;1003553;-68
2023/05/23 10:37:34;;;;;;;5.90;4.80;;;;;;;-128.00;-1.00;-1.00;105709;1252;1044424;-69
2023/05/23 10:40:10;;;;;;;6.70;5.40;;;;;;;-128.00;-1.00;-1.00;105717;1251;1047488;-68
2023/05/23 10:42:56;;;;;;;6.60;4.40;;;;;;;-128.00;-1.00;-1.00;105737;1251;1063420;-70
2023/05/23 10:45:23;;;;;;;5.70;4.40;;;;;;;-128.00;-1.00;-1.00;105685;1253;1056285;-70
2023/05/23 10:47:52;;;;;;;4.70;4.30;;;;;;;-128.00;-1.00;-1.00;105691;1251;1005081;-70
2023/05/23 10:50:32;;;;;;;4.80;4.20;;;;;;;-128.00;-1.00;-1.00;105682;1252;1044689;-70
2023/05/23 10:53:05;;;;;;;6.50;4.00;;;;;;;-128.00;-1.00;-1.00;105734;1251;1046899;-70
2023/05/23 10:55:33;;;;;;;7.70;4.60;;;;;;;-128.00;-1.00;-1.00;105726;1253;1063659;-70
2023/05/23 10:58:11;;;;;;;7.90;4.80;;;;;;;-128.00;-1.00;-1.00;105665;1251;1003704;-69
2023/05/23 11:00:38;;;;;;;4.50;3.90;;;;;;;-128.00;-1.00;-1.00;105685;1251;1060204;-70
2023/05/23 11:03:07;;;;;;;5.00;4.20;;;;;;;-128.00;-1.00;-1.00;105723;1251;1003362;-70
2023/05/23 11:05:37;;;;;;;5.10;4.40;;;;;;;-128.00;-1.00;-1.00;105688;1251;1047460;-69
2023/05/23 11:08:07;;;;;;;;;;;;;;;-128.00;-1.00;-1.00;105767;1251;1061838;-69
2023/05/23 11:11:00;;;;;;;5.90;4.50;;;;;;;-128.00;-1.00;-1.00;105697;1255;1055745;-69